Time;durP1;ratioP1;P1;durP2;ratioP2;P2;SDS_P1;SDS_P2;PMS_P1;PMS_P2;Temp;Humidity;BMP_temperature;BMP_pressure;BME280_temperature;BME280_humidity;BME280_pressure;Samples;Min_cycle;Max_cycle;Signal;HPM_P1;HPM_P2
2021/03/02 00:05:26;;;;;;;225.30;84.07;;;;;;;-1.49;81.43;100909.44;4177767;84;21238;-85
2021/03/02 00:11:29;;;;;;;206.40;73.10;;;;;;;-1.42;81.51;100904.15;4175479;84;21190;-86
2021/03/02 00:17:44;;;;;;;200.93;76.17;;;;;;;-1.41;82.57;100896.91;4178838;84;22088;-86
2021/03/02 00:23:51;;;;;;;175.83;70.77;;;;;;;-1.39;82.17;100892.11;4177556;84;21222;-86
2021/03/02 00:29:53;;;;;;;180.00;69.93;;;;;;;-1.29;82.31;100890.86;4177110;84;21547;-86
2021/03/02 00:35:55;;;;;;;192.00;70.90;;;;;;;-1.17;82.24;100898.25;4179021;84;21737;-86
2021/03/02 00:41:57;;;;;;;169.17;69.03;;;;;;;-1.17;82.39;100899.07;4179135;84;21206;-86
2021/03/02 00:47:59;;;;;;;154.27;58.87;;;;;;;-0.97;82.61;100899.28;4177043;84;21687;-86
2021/03/02 00:54:00;;;;;;;152.70;63.37;;;;;;;-1.10;81.70;100880.06;4178565;84;21242;-85
2021/03/02 01:00:06;;;;;;;156.40;56.90;;;;;;;-1.48;82.16;100883.67;4178093;84;21206;-86
2021/03/02 01:06:08;;;;;;;139.03;56.58;;;;;;;-1.32;82.79;100876.59;4182907;84;21179;-85
2021/03/02 01:12:10;;;;;;;135.80;53.90;;;;;;;-1.22;82.20;100876.16;4185118;85;21187;-85
2021/03/02 01:18:14;;;;;;;151.10;58.77;;;;;;;-1.30;81.95;100862.39;4182506;84;21183;-88
2021/03/02 01:24:16;;;;;;;146.97;58.93;;;;;;;-1.49;81.71;100863.77;4182961;84;21213;-86
2021/03/02 01:30:22;;;;;;;132.57;56.23;;;;;;;-1.64;82.22;100856.34;4110973;85;21656;-86
2021/03/02 01:36:24;;;;;;;136.43;59.75;;;;;;;-1.53;83.20;100850.03;4189824;84;21203;-86
2021/03/02 01:42:26;;;;;;;140.10;59.87;;;;;;;-1.31;83.07;100850.00;4185577;84;21667;-86
2021/03/02 01:48:28;;;;;;;148.43;60.80;;;;;;;-1.20;82.87;100839.11;4111593;85;22072;-85
2021/03/02 01:54:30;;;;;;;132.57;57.43;;;;;;;-1.24;82.34;100839.36;4182388;84;21765;-86
2021/03/02 02:00:36;;;;;;;136.50;55.33;;;;;;;-1.26;82.25;100829.91;4089266;85;21629;-86
2021/03/02 02:06:54;;;;;;;119.57;50.90;;;;;;;-1.45;82.13;100827.27;4180513;84;21217;-85
2021/03/02 02:13:09;;;;;;;132.77;56.17;;;;;;;-1.45;82.59;100821.91;4112063;85;21219;-85
2021/03/02 02:19:35;;;;;;;97.43;40.83;;;;;;;-1.37;82.69;100810.19;4175663;84;21257;-87
2021/03/02 02:26:12;;;;;;;129.97;54.37;;;;;;;-1.36;82.43;100799.71;4158978;84;21178;-85
2021/03/02 02:32:15;;;;;;;130.47;54.70;;;;;;;-1.44;82.48;100798.81;4182364;84;21229;-84
2021/03/02 02:38:20;;;;;;;137.97;55.63;;;;;;;-1.45;82.60;100795.86;4182118;84;21220;-86
2021/03/02 02:44:22;;;;;;;129.03;55.97;;;;;;;-1.48;82.37;100803.09;4180536;84;21686;-84
2021/03/02 02:50:25;;;;;;;129.97;55.27;;;;;;;-1.49;82.72;100793.94;4178507;84;21689;-84
2021/03/02 02:56:29;;;;;;;119.63;52.10;;;;;;;-1.45;82.59;100792.36;4173587;84;30272;-85
2021/03/02 03:02:34;;;;;;;118.83;53.30;;;;;;;-1.60;82.01;100794.38;4094411;86;21244;-84
2021/03/02 03:08:36;;;;;;;123.53;50.83;;;;;;;-1.96;82.34;100785.63;4086998;86;21229;-84
2021/03/02 03:14:54;;;;;;;127.27;52.93;;;;;;;-1.91;82.79;100785.14;4071100;86;21170;-83
2021/03/02 03:21:00;;;;;;;131.10;54.70;;;;;;;-1.90;82.70;100781.41;4096205;86;21351;-83
2021/03/02 03:27:02;;;;;;;127.78;53.25;;;;;;;-1.96;82.17;100783.73;4103381;86;21338;-83
2021/03/02 03:33:08;;;;;;;129.47;53.60;;;;;;;-2.01;82.74;100781.52;4072588;86;21326;-83
2021/03/02 03:39:10;;;;;;;95.03;40.65;;;;;;;-2.03;82.57;100789.01;4092601;86;21384;-84
2021/03/02 03:45:13;;;;;;;124.03;50.60;;;;;;;-2.17;83.02;100789.09;4089834;85;29122;-83
2021/03/02 03:51:15;;;;;;;121.97;50.47;;;;;;;-2.23;82.55;100798.96;4090597;85;21663;-83
2021/03/02 03:57:18;;;;;;;115.77;51.70;;;;;;;-2.20;83.34;100803.83;4091171;85;21643;-83
2021/03/02 04:03:22;;;;;;;132.07;51.73;;;;;;;-2.11;83.28;100817.61;4091442;85;21870;-83
2021/03/02 04:09:24;;;;;;;149.73;60.87;;;;;;;-2.11;84.10;100810.91;4090367;85;21241;-83
2021/03/02 04:15:27;;;;;;;170.83;65.27;;;;;;;-2.13;83.93;100806.34;4091223;85;21176;-83
2021/03/02 04:21:29;;;;;;;182.20;69.87;;;;;;;-2.01;84.41;100803.81;4091170;85;21239;-84
2021/03/02 04:27:30;;;;;;;196.00;75.33;;;;;;;-1.77;85.92;100804.38;4091476;85;21299;-83
2021/03/02 04:33:32;;;;;;;234.60;80.07;;;;;;;-1.63;85.26;100801.59;4104931;85;21336;-83
2021/03/02 04:39:34;;;;;;;237.00;83.80;;;;;;;-1.52;85.20;100793.92;4107705;85;21195;-83
2021/03/02 04:45:35;;;;;;;220.67;80.20;;;;;;;-1.35;85.53;100789.78;4105257;85;21246;-83
2021/03/02 04:51:37;;;;;;;191.73;75.00;;;;;;;-1.25;85.36;100780.49;4105733;85;21349;-83
2021/03/02 04:57:39;;;;;;;171.53;66.63;;;;;;;-1.17;85.47;100780.83;4104473;85;21256;-83
2021/03/02 05:03:40;;;;;;;172.60;67.83;;;;;;;-1.25;85.34;100786.66;4063928;85;21267;-83
2021/03/02 05:09:42;;;;;;;162.37;66.37;;;;;;;-1.21;85.46;100781.07;4106674;85;21234;-83
2021/03/02 05:15:44;;;;;;;174.87;66.10;;;;;;;-1.13;85.38;100792.70;4105836;85;21223;-84
2021/03/02 05:21:46;;;;;;;191.30;72.10;;;;;;;-1.08;85.20;100792.73;4114972;83;26094;-82
2021/03/02 05:27:47;;;;;;;173.63;65.73;;;;;;;-1.04;85.12;100792.51;4183223;83;21334;-82
2021/03/02 05:33:49;;;;;;;174.63;69.53;;;;;;;-0.99;84.97;100797.11;4160776;83;21236;-85
2021/03/02 05:39:51;;;;;;;154.70;64.40;;;;;;;-0.98;84.88;100791.48;4166044;83;21647;-84
2021/03/02 05:45:53;;;;;;;160.23;63.77;;;;;;;-0.99;84.98;100795.25;4159885;83;21240;-84
2021/03/02 05:51:55;;;;;;;167.63;67.20;;;;;;;-0.99;85.10;100787.18;4157956;83;21205;-82
2021/03/02 05:57:56;;;;;;;179.13;66.03;;;;;;;-1.09;85.25;100795.14;4175472;83;21224;-83
2021/03/02 06:03:58;;;;;;;194.77;72.70;;;;;;;-1.25;85.74;100800.09;4167754;83;21257;-83
2021/03/02 06:10:00;;;;;;;173.80;68.20;;;;;;;-1.37;86.00;100792.73;4152311;83;21184;-83
2021/03/02 06:16:01;;;;;;;195.20;71.03;;;;;;;-1.25;85.76;100792.03;4109084;85;21188;-83
2021/03/02 06:22:04;;;;;;;186.90;70.80;;;;;;;-1.19;86.08;100790.22;4150592;83;21663;-84
2021/03/02 06:28:06;;;;;;;183.90;67.97;;;;;;;-1.07;86.14;100791.67;4171657;83;21268;-84
2021/03/02 06:34:17;;;;;;;163.83;64.70;;;;;;;-0.88;85.99;100799.64;4161980;83;21647;-83
2021/03/02 06:40:25;;;;;;;157.57;62.03;;;;;;;-0.79;86.27;100802.13;4113942;85;21242;-83
2021/03/02 06:46:41;;;;;;;173.37;66.93;;;;;;;-0.69;86.41;100807.57;4440990;79;23036;-82
2021/03/02 06:52:44;;;;;;;162.60;63.33;;;;;;;-0.69;86.43;100796.02;4380346;80;21493;-82
2021/03/02 06:58:50;;;;;;;177.47;69.27;;;;;;;-0.74;86.23;100800.83;4300926;80;28713;-84
2021/03/02 07:04:58;;;;;;;157.88;61.65;;;;;;;-0.71;86.57;100803.00;4216378;83;21227;-84
2021/03/02 07:11:03;;;;;;;157.43;63.23;;;;;;;-0.58;86.57;100800.41;4232622;82;21837;-83
2021/03/02 07:17:05;;;;;;;171.17;66.03;;;;;;;-0.59;86.63;100798.77;4213187;82;21543;-83
2021/03/02 07:23:08;;;;;;;185.40;72.17;;;;;;;-0.50;86.66;100798.58;4249732;82;21168;-83
2021/03/02 07:29:12;;;;;;;188.13;72.23;;;;;;;-0.40;86.74;100786.00;4234121;82;21206;-84
2021/03/02 07:35:23;;;;;;;207.43;75.15;;;;;;;-0.28;86.69;100791.98;4230738;82;21669;-83
2021/03/02 07:41:34;;;;;;;166.40;68.30;;;;;;;-0.21;86.64;100786.37;4135151;84;21233;-83
2021/03/02 07:47:49;;;;;;;179.30;69.82;;;;;;;-0.12;86.73;100797.73;4231164;82;21653;-84
2021/03/02 07:53:52;;;;;;;172.10;68.45;;;;;;;-0.06;86.95;100795.86;4226886;82;21225;-85
2021/03/02 08:00:20;;;;;;;187.97;69.35;;;;;;;0.11;87.13;100805.90;4229723;82;21829;-85
2021/03/02 08:06:33;;;;;;;162.07;62.53;;;;;;;0.36;87.18;100811.94;4191649;82;21248;-85
2021/03/02 08:12:36;;;;;;;159.12;62.40;;;;;;;0.31;86.63;100803.84;4185912;83;28031;-85
2021/03/02 08:18:40;;;;;;;154.15;63.73;;;;;;;0.31;86.98;100811.92;4162534;84;21153;-85
2021/03/02 08:24:58;;;;;;;161.07;63.13;;;;;;;0.39;86.92;100808.72;4157978;84;21180;-85
2021/03/02 08:31:05;;;;;;;148.28;57.50;;;;;;;0.34;87.04;100794.70;4158548;84;22589;-86
2021/03/02 08:37:06;;;;;;;150.20;59.42;;;;;;;0.56;86.93;100818.21;4141878;84;21192;-85
2021/03/02 08:43:18;;;;;;;147.68;57.73;;;;;;;0.65;86.96;100813.92;4166993;84;21228;-86
2021/03/02 08:49:19;;;;;;;145.70;61.05;;;;;;;0.78;86.90;100812.59;4144381;84;21208;-86
2021/03/02 08:55:37;;;;;;;143.07;56.45;;;;;;;0.91;86.99;100806.14;4154501;84;21201;-86
2021/03/02 09:01:42;;;;;;;179.27;67.60;;;;;;;0.98;86.77;100801.84;4069635;85;21235;-87
2021/03/02 09:08:06;;;;;;;160.70;63.05;;;;;;;1.32;87.04;100813.17;4049807;85;33713;-88
2021/03/02 09:14:15;;;;;;;149.47;60.20;;;;;;;1.72;86.35;100816.39;4030855;88;21209;-89
2021/03/02 09:20:17;;;;;;;149.65;62.58;;;;;;;1.83;86.15;100822.56;4033808;87;21199;-88
2021/03/02 09:26:21;;;;;;;190.68;76.60;;;;;;;2.05;86.35;100817.66;4042408;88;22393;-88
2021/03/02 09:32:27;;;;;;;177.27;72.53;;;;;;;2.91;86.86;100799.92;4042330;87;21369;-88
2021/03/02 09:38:29;;;;;;;153.50;66.42;;;;;;;4.53;86.75;100808.84;4033775;87;21232;-87
2021/03/02 09:44:33;;;;;;;144.37;65.30;;;;;;;5.23;81.62;100809.73;4012305;87;21273;-88
2021/03/02 09:50:39;;;;;;;123.80;59.23;;;;;;;6.27;84.08;100808.95;4021945;88;21191;-88
2021/03/02 09:56:48;;;;;;;113.03;53.55;;;;;;;7.66;83.14;100814.16;4020191;88;21212;-87
2021/03/02 10:02:55;;;;;;;97.22;51.88;;;;;;;8.61;81.50;100821.67;4004594;87;21417;-89
2021/03/02 10:08:57;;;;;;;90.77;46.60;;;;;;;9.46;80.17;100832.63;4020841;88;21770;-88
2021/03/02 10:14:59;;;;;;;82.10;43.42;;;;;;;10.23;78.87;100832.47;4005391;88;21742;-88
2021/03/02 10:21:03;;;;;;;80.65;41.75;;;;;;;10.59;77.01;100814.98;4026192;88;21410;-87
2021/03/02 10:27:17;;;;;;;75.37;40.98;;;;;;;11.38;77.06;100806.66;4038546;87;21255;-89
2021/03/02 10:33:19;;;;;;;79.27;40.85;;;;;;;12.25;76.22;100793.29;4037243;87;21227;-88
2021/03/02 10:39:21;;;;;;;73.50;38.65;;;;;;;12.89;74.84;100800.21;4031893;88;21244;-87
2021/03/02 10:45:23;;;;;;;63.87;35.45;;;;;;;13.46;73.34;100793.07;4024194;87;21524;-88
2021/03/02 10:51:25;;;;;;;59.53;33.88;;;;;;;13.47;70.61;100781.72;4021681;88;21390;-87
2021/03/02 10:57:27;;;;;;;63.85;35.23;;;;;;;13.91;70.22;100775.61;4019938;86;33727;-87
2021/03/02 11:03:29;;;;;;;66.02;37.55;;;;;;;14.02;69.33;100761.55;3988499;88;21192;-87
2021/03/02 11:09:30;;;;;;;68.15;37.53;;;;;;;13.79;68.02;100759.19;4017289;88;21240;-88
2021/03/02 11:15:32;;;;;;;65.25;35.90;;;;;;;13.74;68.18;100756.13;4010637;88;22556;-87
2021/03/02 11:21:34;;;;;;;62.23;35.73;;;;;;;13.81;66.84;100745.28;4009995;88;21413;-87
2021/03/02 11:27:35;;;;;;;70.60;38.60;;;;;;;13.67;64.87;100746.29;4038694;87;21880;-87
2021/03/02 11:33:39;;;;;;;70.05;37.98;;;;;;;13.40;61.06;100739.47;4053565;87;21239;-88
2021/03/02 11:39:41;;;;;;;64.30;34.00;;;;;;;13.48;62.76;100740.69;4055518;85;21223;-89
2021/03/02 11:45:42;;;;;;;63.23;33.67;;;;;;;13.87;62.62;100735.63;4052570;87;21683;-88
2021/03/02 11:51:44;;;;;;;61.30;33.83;;;;;;;14.07;62.07;100724.11;4055679;87;21228;-87
2021/03/02 11:57:47;;;;;;;62.70;34.43;;;;;;;13.82;60.52;100715.81;4062582;86;21782;-87
2021/03/02 12:03:49;;;;;;;52.45;30.57;;;;;;;13.70;60.00;100717.28;4037446;87;21233;-88
2021/03/02 12:09:51;;;;;;;59.40;30.50;;;;;;;13.52;59.40;100717.38;4023530;87;22189;-87
2021/03/02 12:15:55;;;;;;;57.73;31.62;;;;;;;13.50;58.65;100709.48;4041584;86;21265;-86
2021/03/02 12:21:57;;;;;;;54.65;30.77;;;;;;;13.06;56.98;100703.74;4037495;86;21383;-87
2021/03/02 12:27:59;;;;;;;56.88;29.72;;;;;;;12.72;57.84;100698.02;4031124;87;21649;-88
2021/03/02 12:34:00;;;;;;;51.35;27.58;;;;;;;12.66;56.53;100691.95;4043665;87;21215;-87
2021/03/02 12:40:04;;;;;;;43.87;26.33;;;;;;;12.53;57.68;100698.62;4036195;87;21700;-86
2021/03/02 12:46:06;;;;;;;54.23;25.52;;;;;;;12.57;57.54;100691.30;4052792;86;21680;-87
2021/03/02 12:52:10;;;;;;;42.35;22.55;;;;;;;12.62;58.16;100686.34;4062116;85;21235;-87
2021/03/02 12:58:13;;;;;;;43.02;22.25;;;;;;;12.58;55.66;100673.09;4066294;86;21231;-88
2021/03/02 13:04:15;;;;;;;41.18;21.37;;;;;;;12.54;56.94;100668.65;4069953;85;21717;-88
2021/03/02 13:10:17;;;;;;;33.90;18.95;;;;;;;12.47;56.58;100660.19;4064857;85;21231;-86
2021/03/02 13:16:19;;;;;;;33.42;18.80;;;;;;;12.46;56.42;100669.02;4025187;85;34416;-86
2021/03/02 13:22:21;;;;;;;35.33;17.85;;;;;;;12.52;56.83;100666.25;4029689;85;31473;-91
2021/03/02 13:28:25;;;;;;;33.13;17.82;;;;;;;12.53;56.10;100670.59;4119180;85;21213;-89
2021/03/02 13:34:33;;;;;;;34.33;18.55;;;;;;;12.65;56.51;100667.80;4027959;86;21698;-90
2021/03/02 13:40:35;;;;;;;31.75;17.30;;;;;;;12.69;55.48;100662.41;4059424;85;27521;-87
2021/03/02 13:46:37;;;;;;;33.20;16.55;;;;;;;12.61;55.76;100653.17;4018386;87;22509;-86
2021/03/02 13:52:39;;;;;;;36.95;19.05;;;;;;;12.63;55.91;100646.76;4010405;87;21267;-87
2021/03/02 13:58:41;;;;;;;33.58;18.75;;;;;;;12.62;54.00;100629.25;3938547;89;21207;-89
2021/03/02 14:04:43;;;;;;;33.75;18.10;;;;;;;12.52;55.52;100630.54;4011421;87;22638;-86
2021/03/02 14:10:45;;;;;;;33.58;17.73;;;;;;;12.55;54.51;100619.42;4010561;87;21221;-87
2021/03/02 14:16:47;;;;;;;34.43;18.32;;;;;;;12.63;54.03;100617.10;3934555;89;21188;-87
2021/03/02 14:22:49;;;;;;;38.25;18.30;;;;;;;12.56;54.80;100614.95;4009023;87;21536;-88
2021/03/02 14:28:51;;;;;;;35.17;18.67;;;;;;;12.55;54.88;100620.23;4006097;87;21263;-88
2021/03/02 14:34:53;;;;;;;40.95;18.65;;;;;;;12.55;54.92;100613.36;4010617;87;21216;-87
2021/03/02 14:40:55;;;;;;;37.78;18.57;;;;;;;12.58;55.09;100620.09;3942183;89;21829;-87
2021/03/02 14:47:12;;;;;;;39.45;21.12;;;;;;;12.61;54.79;100611.96;4098760;84;30586;-87
2021/03/02 14:53:20;;;;;;;40.65;19.40;;;;;;;12.58;54.72;100607.16;4063071;86;21179;-87
2021/03/02 14:59:22;;;;;;;40.52;19.70;;;;;;;12.43;55.16;100602.98;4165274;84;21691;-88
2021/03/02 15:05:23;;;;;;;41.25;21.33;;;;;;;12.23;54.78;100597.11;4157562;84;21653;-87
2021/03/02 15:11:26;;;;;;;35.28;19.50;;;;;;;11.99;54.92;100602.07;4165914;85;21331;-87
2021/03/02 15:17:29;;;;;;;43.10;19.32;;;;;;;11.74;54.22;100599.13;4116242;84;30601;-87
2021/03/02 15:23:34;;;;;;;35.60;18.12;;;;;;;11.58;55.09;100591.88;4042652;86;22275;-86
2021/03/02 15:29:45;;;;;;;35.68;18.15;;;;;;;11.36;55.21;100586.28;4045762;86;21201;-87
2021/03/02 15:35:48;;;;;;;41.68;20.15;;;;;;;11.13;55.67;100577.45;4048162;86;21371;-86
2021/03/02 15:41:51;;;;;;;41.30;19.95;;;;;;;10.94;55.89;100570.59;4068119;86;21256;-87
2021/03/02 15:47:56;;;;;;;43.98;21.42;;;;;;;10.73;56.28;100574.50;4028891;86;21239;-87
2021/03/02 15:53:59;;;;;;;40.10;20.00;;;;;;;10.48;56.44;100565.97;3982989;87;21285;-86
2021/03/02 16:00:11;;;;;;;43.55;21.02;;;;;;;10.33;56.62;100561.12;4072999;86;21572;-87
2021/03/02 16:06:31;;;;;;;42.62;19.70;;;;;;;10.11;57.06;100562.28;4071734;86;21201;-86
2021/03/02 16:12:35;;;;;;;47.67;19.75;;;;;;;9.84;57.69;100568.23;4054152;86;21297;-86
2021/03/02 16:18:40;;;;;;;41.05;21.95;;;;;;;9.58;57.77;100566.78;4069171;86;21679;-87
2021/03/02 16:24:42;;;;;;;44.00;20.77;;;;;;;9.28;58.28;100562.69;4048200;86;21878;-87
2021/03/02 16:30:44;;;;;;;43.85;20.90;;;;;;;9.10;58.46;100566.61;4062213;86;21232;-88
2021/03/02 16:36:46;;;;;;;43.40;21.70;;;;;;;8.93;58.74;100567.22;4064802;86;21846;-87
2021/03/02 16:42:50;;;;;;;43.25;23.02;;;;;;;8.72;59.00;100577.25;4061857;86;21862;-87
2021/03/02 16:48:51;;;;;;;48.95;23.62;;;;;;;8.58;59.13;100587.55;4084403;86;21267;-87
2021/03/02 16:55:06;;;;;;;54.35;24.98;;;;;;;8.37;59.42;100587.41;4062021;85;21723;-87
2021/03/02 17:01:22;;;;;;;52.00;24.35;;;;;;;8.06;59.73;100589.46;4082310;85;21345;-88
2021/03/02 17:07:27;;;;;;;53.60;25.55;;;;;;;7.85;60.12;100593.36;4080432;85;21719;-86
2021/03/02 17:13:28;;;;;;;59.45;27.87;;;;;;;7.62;60.39;100592.42;4099518;85;21664;-86
2021/03/02 17:19:30;;;;;;;89.42;44.42;;;;;;;7.46;60.71;100598.05;4059140;85;21192;-88
2021/03/02 17:25:32;;;;;;;160.63;85.65;;;;;;;7.31;60.91;100599.86;4100009;85;21732;-87
2021/03/02 17:31:33;;;;;;;69.58;32.80;;;;;;;7.30;60.90;100599.05;4097946;85;21247;-86
2021/03/02 17:37:35;;;;;;;378.88;132.45;;;;;;;7.18;61.11;100595.30;4073558;85;21225;-87
2021/03/02 17:43:36;;;;;;;243.22;81.32;;;;;;;6.95;61.46;100606.01;4078505;85;21232;-87
2021/03/02 17:49:38;;;;;;;113.97;44.55;;;;;;;6.78;61.74;100609.99;4048433;86;21172;-89
2021/03/02 17:55:40;;;;;;;97.17;43.52;;;;;;;6.59;62.01;100604.75;4040865;86;21705;-86
2021/03/02 18:01:41;;;;;;;138.35;50.58;;;;;;;6.42;62.23;100608.71;4041991;86;21245;-86
2021/03/02 18:07:43;;;;;;;111.50;46.05;;;;;;;6.29;62.57;100608.20;4056232;86;21181;-87
2021/03/02 18:13:45;;;;;;;113.20;43.25;;;;;;;6.12;62.70;100607.48;4051114;86;21395;-87
2021/03/02 18:19:46;;;;;;;115.50;48.40;;;;;;;5.94;63.09;100616.59;4044727;86;21216;-87
2021/03/02 18:25:49;;;;;;;93.97;44.77;;;;;;;5.81;63.43;100616.02;4047175;86;21343;-86
2021/03/02 18:31:51;;;;;;;85.70;37.00;;;;;;;5.65;63.84;100619.38;4055337;86;21586;-87
2021/03/02 18:37:53;;;;;;;86.90;37.28;;;;;;;5.36;64.38;100611.53;4065442;86;21260;-86
2021/03/02 18:43:55;;;;;;;79.65;36.33;;;;;;;5.05;64.79;100610.50;4037071;86;21233;-87
2021/03/02 18:49:58;;;;;;;79.42;36.05;;;;;;;4.84;65.08;100605.17;4052500;86;21281;-88
2021/03/02 18:56:00;;;;;;;89.47;38.20;;;;;;;4.64;65.66;100600.92;4086571;85;22751;-86
2021/03/02 19:02:04;;;;;;;97.95;40.65;;;;;;;4.49;66.03;100605.25;4076499;85;21393;-86
2021/03/02 19:08:07;;;;;;;104.27;43.78;;;;;;;4.43;66.58;100606.98;4085849;85;21263;-87
2021/03/02 19:14:09;;;;;;;96.20;37.75;;;;;;;4.35;66.95;100615.78;4068685;85;21246;-86
2021/03/02 19:20:12;;;;;;;89.60;38.60;;;;;;;4.26;66.63;100616.19;4081111;85;21240;-87
2021/03/02 19:26:13;;;;;;;93.78;41.02;;;;;;;4.02;67.57;100608.14;4062775;85;22237;-87
2021/03/02 19:32:15;;;;;;;87.95;38.63;;;;;;;3.90;67.88;100606.39;4084359;85;21235;-86
2021/03/02 19:38:17;;;;;;;130.65;56.25;;;;;;;3.80;68.48;100607.91;4076479;85;21695;-86
2021/03/02 19:44:19;;;;;;;135.05;59.20;;;;;;;3.63;68.99;100610.30;4077159;85;21216;-85
2021/03/02 19:50:21;;;;;;;140.47;62.53;;;;;;;3.56;69.20;100611.19;4070898;86;21273;-86
2021/03/02 19:56:23;;;;;;;177.85;74.47;;;;;;;3.49;69.46;100619.41;4058885;86;21224;-86
2021/03/02 20:02:25;;;;;;;173.60;75.03;;;;;;;3.37;69.29;100615.74;4058976;86;21232;-86
2021/03/02 20:08:26;;;;;;;181.72;78.40;;;;;;;3.20;69.45;100616.75;4054444;86;21249;-86
2021/03/02 20:14:28;;;;;;;212.12;89.32;;;;;;;2.96;69.34;100614.02;4060160;86;21390;-86
2021/03/02 20:20:30;;;;;;;136.07;58.23;;;;;;;2.75;69.46;100624.79;4027768;86;21264;-87
2021/03/02 20:26:33;;;;;;;186.43;75.35;;;;;;;2.56;70.19;100625.22;4051834;86;21255;-88
2021/03/02 20:32:35;;;;;;;179.07;73.02;;;;;;;2.39;70.11;100626.70;4031206;86;21244;-86
2021/03/02 20:38:36;;;;;;;213.87;81.22;;;;;;;2.14;70.37;100634.98;4054057;86;21818;-87
2021/03/02 20:44:38;;;;;;;215.68;82.53;;;;;;;2.15;70.92;100624.43;4055467;86;21680;-87
2021/03/02 20:50:40;;;;;;;234.55;93.12;;;;;;;2.11;71.33;100624.73;4065873;86;21779;-86
2021/03/02 20:56:41;;;;;;;202.07;82.37;;;;;;;1.93;70.76;100631.59;4063212;86;21374;-90
2021/03/02 21:02:43;;;;;;;172.90;67.10;;;;;;;1.55;70.61;100633.69;4075359;85;21270;-86
2021/03/02 21:08:44;;;;;;;151.60;66.35;;;;;;;1.30;71.29;100644.00;4056510;85;21731;-86
2021/03/02 21:14:46;;;;;;;156.45;63.80;;;;;;;1.25;71.94;100634.56;4055789;85;21255;-86
2021/03/02 21:20:48;;;;;;;157.22;63.38;;;;;;;1.19;72.15;100642.97;4043310;85;21399;-86
2021/03/02 21:26:49;;;;;;;208.25;90.03;;;;;;;1.07;72.31;100643.27;4073956;85;21908;-86
2021/03/02 21:32:52;;;;;;;196.50;79.80;;;;;;;0.89;72.52;100649.20;3951293;85;10000369;-87
2021/03/02 21:38:54;;;;;;;142.45;60.25;;;;;;;0.92;72.79;100641.95;4077465;85;21232;-85
2021/03/02 21:44:56;;;;;;;202.18;81.08;;;;;;;1.02;73.66;100644.61;4070599;85;21260;-87
2021/03/02 21:50:57;;;;;;;238.45;98.65;;;;;;;1.04;73.15;100640.30;4046781;86;21843;-86
2021/03/02 21:56:59;;;;;;;277.27;119.80;;;;;;;0.71;72.66;100647.61;4036444;86;21382;-86
2021/03/02 22:03:01;;;;;;;296.10;128.07;;;;;;;0.52;73.09;100651.95;4059692;86;21229;-86
2021/03/02 22:09:03;;;;;;;319.37;127.00;;;;;;;0.35;73.26;100654.06;4049231;86;21215;-86
2021/03/02 22:15:06;;;;;;;258.10;112.95;;;;;;;0.19;73.71;100658.62;4047764;86;21348;-89
2021/03/02 22:21:08;;;;;;;263.40;115.03;;;;;;;0.21;74.03;100657.00;4056661;86;21217;-86
2021/03/02 22:27:09;;;;;;;283.30;122.80;;;;;;;0.05;73.60;100648.65;4070971;86;21233;-87
2021/03/02 22:33:11;;;;;;;274.57;116.00;;;;;;;-0.02;73.74;100646.99;4056978;86;21273;-86
2021/03/02 22:39:14;;;;;;;331.68;131.22;;;;;;;-0.03;75.11;100635.14;4039457;86;21713;-85
2021/03/02 22:45:16;;;;;;;315.23;133.60;;;;;;;-0.02;77.41;100637.57;4048579;86;21213;-87
2021/03/02 22:51:18;;;;;;;289.90;120.80;;;;;;;-0.03;76.35;100637.31;3920064;88;21202;-86
2021/03/02 22:57:20;;;;;;;323.13;135.75;;;;;;;0.05;76.16;100627.11;4055615;86;21235;-85
2021/03/02 23:03:22;;;;;;;295.80;122.67;;;;;;;-0.03;75.10;100626.55;4055885;86;21374;-85
2021/03/02 23:09:23;;;;;;;284.77;124.60;;;;;;;-0.23;75.67;100625.67;4050977;86;21390;-86
2021/03/02 23:15:25;;;;;;;289.60;122.37;;;;;;;-0.12;76.21;100627.33;4070294;86;21834;-87
2021/03/02 23:21:27;;;;;;;283.98;119.80;;;;;;;-0.20;75.56;100633.22;4065307;86;21200;-89
2021/03/02 23:27:29;;;;;;;271.48;113.72;;;;;;;-0.23;75.75;100628.37;4054490;86;21273;-87
2021/03/02 23:33:30;;;;;;;245.67;103.37;;;;;;;-0.43;75.56;100633.16;4070110;86;21574;-86
2021/03/02 23:39:32;;;;;;;256.43;110.90;;;;;;;-0.48;75.62;100622.91;4068197;86;21768;-85
2021/03/02 23:45:35;;;;;;;250.43;105.00;;;;;;;-0.54;76.76;100632.03;4030274;86;21248;-85
2021/03/02 23:51:37;;;;;;;236.93;101.00;;;;;;;-0.50;76.50;100626.41;4003060;86;21208;-86
2021/03/02 23:57:39;;;;;;;234.60;96.97;;;;;;;-0.41;77.07;100620.79;3987557;88;21212;-85
